Catolandia, Brazil
Current Conditions -  °F | °C
As of 4:00 AM on Saturday 20 Dec 2014 (Local Time) from SBPJ Reporting Station
Few Clouds Few Clouds  
Wind Chill: 75°   Ceiling: Unl
Heat Index: 75°   Visibility: 6mi
Dew Point: 72°   Wind: 0mph
Humidity: 89%   Direction: NA
Pressure: 29.85"   Gusts: NA
Location:  12.32°S, 44.86°W
Report Text: SBPJ 200700Z 00000KT 9999 FEW025 24/22 Q1011
Loading
Personal Weather Stations






























Interactive Weather Map New forecast layout! Learn more

10-Day Weather Forecast

Advertisements
Track Severe Weather on mobile